createdAt,value
2022-09-22T00:02:25.371Z,102140.72
2022-09-22T00:04:55.420Z,102136.81
2022-09-22T00:07:24.995Z,102135.84
2022-09-22T00:09:51.965Z,102126.44
2022-09-22T00:12:19.037Z,102128.38
2022-09-22T00:14:49.444Z,102128.38
2022-09-22T00:17:16.394Z,102127.94
2022-09-22T00:19:43.246Z,102124.34
2022-09-22T00:22:12.263Z,102118.44
2022-09-22T00:24:39.545Z,102118.25
2022-09-22T00:27:11.091Z,102120.97
2022-09-22T00:29:38.519Z,102123.09
2022-09-22T00:32:07.574Z,102127.25
2022-09-22T00:34:37.158Z,102122.09
2022-09-22T00:37:04.376Z,102122.81
2022-09-22T00:39:33.584Z,102116.00
2022-09-22T00:42:00.541Z,102117.00
2022-09-22T00:44:30.233Z,102121.03
2022-09-22T00:47:19.508Z,102117.41
2022-09-22T00:49:58.426Z,102116.47
2022-09-22T00:52:36.304Z,102108.47
2022-09-22T00:55:09.351Z,102113.22
2022-09-22T00:57:38.864Z,102116.88
2022-09-22T01:00:12.928Z,102123.59
2022-09-22T01:02:42.687Z,102112.91
2022-09-22T01:05:10.118Z,102114.53
2022-09-22T01:07:38.081Z,102108.81
2022-09-22T01:10:05.599Z,102110.38
2022-09-22T01:12:32.897Z,102115.81
2022-09-22T01:15:38.315Z,102114.09
2022-09-22T01:18:28.347Z,102108.94
2022-09-22T01:21:24.055Z,102105.75
2022-09-22T01:24:18.912Z,102097.31
2022-09-22T01:27:38.646Z,102100.28
2022-09-22T01:30:46.635Z,102091.81
2022-09-22T01:33:31.802Z,102090.16
2022-09-22T01:36:44.944Z,102086.66
2022-09-22T01:39:22.825Z,102078.94
2022-09-22T01:42:03.986Z,102089.09
2022-09-22T01:44:47.032Z,102090.81
2022-09-22T01:47:35.572Z,102093.19
2022-09-22T01:50:16.012Z,102100.34
2022-09-22T01:52:48.324Z,102095.13
2022-09-22T01:55:48.591Z,102087.00
2022-09-22T01:58:31.230Z,102093.34
2022-09-22T02:01:13.610Z,102094.31
2022-09-22T02:04:01.921Z,102086.00
2022-09-22T02:06:40.560Z,102084.75
2022-09-22T02:09:13.222Z,102094.78
2022-09-22T02:11:45.960Z,102085.34
2022-09-22T02:14:18.086Z,102082.44
2022-09-22T02:16:48.112Z,102086.97
2022-09-22T02:19:34.771Z,102080.97
2022-09-22T02:22:01.974Z,102086.84
2022-09-22T02:24:36.102Z,102078.94
2022-09-22T02:27:26.871Z,102081.31
2022-09-22T02:30:08.710Z,102079.25
2022-09-22T02:32:41.592Z,102079.59
2022-09-22T02:35:10.022Z,102085.81
2022-09-22T02:38:21.490Z,102070.47
2022-09-22T02:41:42.709Z,102080.91
2022-09-22T02:44:29.560Z,102082.88
2022-09-22T02:47:27.739Z,102073.09
2022-09-22T02:49:58.377Z,102072.84
2022-09-22T02:52:28.009Z,102076.06
2022-09-22T02:55:05.080Z,102071.38
2022-09-22T02:57:32.348Z,102069.41
2022-09-22T03:00:04.692Z,102069.41
2022-09-22T03:02:31.794Z,102062.63
2022-09-22T03:04:58.963Z,102063.56
2022-09-22T03:07:28.428Z,102062.38
2022-09-22T03:10:00.263Z,102051.88
2022-09-22T03:12:29.730Z,102058.09
2022-09-22T03:14:56.750Z,102065.19
2022-09-22T03:17:26.924Z,102058.84
2022-09-22T03:19:56.176Z,102057.84
2022-09-22T03:22:23.098Z,102063.69
2022-09-22T03:24:52.290Z,102063.84
2022-09-22T03:27:19.188Z,102065.78
2022-09-22T03:29:46.185Z,102064.13
2022-09-22T03:32:20.551Z,102062.41
2022-09-22T03:34:51.174Z,102064.25
2022-09-22T03:37:18.317Z,102059.44
2022-09-22T03:39:45.279Z,102060.31
2022-09-22T03:42:12.286Z,102059.19
2022-09-22T03:44:39.364Z,102063.41
2022-09-22T03:47:09.315Z,102056.53
2022-09-22T03:49:38.205Z,102053.94
2022-09-22T03:52:08.227Z,102053.00
2022-09-22T03:54:37.099Z,102054.19
2022-09-22T03:57:04.688Z,102050.97
2022-09-22T03:59:36.967Z,102049.66
2022-09-22T04:02:06.923Z,102045.19
2022-09-22T04:04:33.924Z,102040.66
2022-09-22T04:07:07.101Z,102039.69
2022-09-22T04:09:36.258Z,102035.50
2022-09-22T04:12:03.356Z,102047.75
2022-09-22T04:14:32.557Z,102043.78
2022-09-22T04:17:02.113Z,102032.00
2022-09-22T04:19:37.597Z,102037.19
2022-09-22T04:22:07.450Z,102037.41
2022-09-22T04:24:37.542Z,102032.75
2022-09-22T04:27:19.635Z,102033.59
2022-09-22T04:29:47.680Z,102027.59
2022-09-22T04:32:14.858Z,102029.19
2022-09-22T04:34:42.011Z,102024.66
2022-09-22T04:37:11.694Z,102027.22
2022-09-22T04:39:38.775Z,102027.94
2022-09-22T04:42:06.343Z,102029.44
2022-09-22T04:44:35.184Z,102024.41
2022-09-22T04:47:03.220Z,102030.56
2022-09-22T04:49:33.317Z,102031.03
2022-09-22T04:52:03.455Z,102033.63
2022-09-22T04:54:30.926Z,102027.41
2022-09-22T04:56:57.921Z,102027.03
2022-09-22T04:59:27.088Z,102032.56
2022-09-22T05:01:56.574Z,102026.41
2022-09-22T05:04:24.815Z,102023.97
2022-09-22T05:06:54.918Z,102027.53
2022-09-22T05:09:26.820Z,102028.38
2022-09-22T05:11:58.854Z,102028.00
2022-09-22T05:14:29.833Z,102030.34
2022-09-22T05:17:02.057Z,102024.22
2022-09-22T05:19:29.513Z,102032.06
2022-09-22T05:22:00.223Z,102039.81
2022-09-22T05:24:27.302Z,102037.97
2022-09-22T05:26:56.930Z,102039.19
2022-09-22T05:29:27.819Z,102038.69
2022-09-22T05:31:55.577Z,102038.69
2022-09-22T05:34:23.015Z,102047.06
2022-09-22T05:36:52.854Z,102037.84
2022-09-22T05:39:20.051Z,102035.75
2022-09-22T05:41:49.883Z,102042.88
2022-09-22T05:44:17.287Z,102037.22
2022-09-22T05:46:47.041Z,102047.06
2022-09-22T05:49:14.061Z,102048.28
2022-09-22T05:51:41.112Z,102045.59
2022-09-22T05:54:09.834Z,102042.88
2022-09-22T05:56:39.950Z,102043.84
2022-09-22T05:59:07.273Z,102046.78
2022-09-22T06:01:39.267Z,102050.72
2022-09-22T06:04:06.320Z,102050.00
2022-09-22T06:06:35.925Z,102054.16
2022-09-22T06:09:02.986Z,102047.28
2022-09-22T06:11:30.132Z,102043.84
2022-09-22T06:13:59.487Z,102050.94
2022-09-22T06:16:26.660Z,102051.31
2022-09-22T06:18:53.660Z,102049.03
2022-09-22T06:21:25.745Z,102059.31
2022-09-22T06:23:55.067Z,102057.78
2022-09-22T06:26:24.513Z,102056.28
2022-09-22T06:28:51.705Z,102053.78
2022-09-22T06:31:18.733Z,102050.00
2022-09-22T06:33:48.634Z,102050.44
2022-09-22T06:36:31.896Z,102055.81
2022-09-22T06:39:00.920Z,102046.97
2022-09-22T06:41:33.567Z,102048.38
2022-09-22T06:44:00.849Z,102065.50
2022-09-22T06:46:33.303Z,102054.31
2022-09-22T06:49:00.910Z,102058.94
2022-09-22T06:51:32.894Z,102061.72
2022-09-22T06:54:08.916Z,102053.97
2022-09-22T06:56:42.582Z,102049.25
2022-09-22T06:59:13.125Z,102056.16
2022-09-22T07:01:42.781Z,102057.22
2022-09-22T07:04:13.451Z,102057.13
2022-09-22T07:06:45.791Z,102060.75
2022-09-22T07:09:12.669Z,102058.03
2022-09-22T07:11:47.451Z,102066.88
2022-09-22T07:14:18.975Z,102060.97
2022-09-22T07:16:52.529Z,102067.97
2022-09-22T07:19:22.015Z,102062.03
2022-09-22T07:21:48.996Z,102065.41
2022-09-22T07:24:15.929Z,102055.06
2022-09-22T07:26:46.580Z,102063.72
2022-09-22T07:29:13.755Z,102063.22
2022-09-22T07:31:41.818Z,102051.63
2022-09-22T07:34:14.133Z,102059.75
2022-09-22T07:36:43.350Z,102059.44
2022-09-22T07:39:11.451Z,102067.81
2022-09-22T07:41:44.961Z,102061.59
2022-09-22T07:44:33.761Z,102063.19
2022-09-22T07:47:02.316Z,102058.00
2022-09-22T07:49:31.972Z,102068.09
2022-09-22T07:51:59.295Z,102063.69
2022-09-22T07:54:27.500Z,102063.34
2022-09-22T07:57:02.278Z,102075.31
2022-09-22T07:59:31.632Z,102070.91
2022-09-22T08:02:00.218Z,102073.50
2022-09-22T08:04:30.333Z,102076.72
2022-09-22T08:06:57.282Z,102079.38
2022-09-22T08:09:25.539Z,102071.59
2022-09-22T08:11:54.778Z,102075.72
2022-09-22T08:14:23.221Z,102071.13
2022-09-22T08:16:53.665Z,102077.47
2022-09-22T08:19:24.052Z,102069.38
2022-09-22T08:21:53.986Z,102070.31
2022-09-22T08:24:22.459Z,102070.09
2022-09-22T08:26:55.705Z,102073.78
2022-09-22T08:29:24.310Z,102074.91
2022-09-22T08:31:54.241Z,102074.81
2022-09-22T08:34:22.386Z,102072.78
2022-09-22T08:36:49.873Z,102072.94
2022-09-22T08:39:21.864Z,102079.84
2022-09-22T08:41:48.834Z,102073.72
2022-09-22T08:44:26.033Z,102081.97
2022-09-22T08:46:55.066Z,102087.25
2022-09-22T08:50:03.270Z,102086.56
2022-09-22T08:52:41.050Z,102085.72
2022-09-22T08:55:24.240Z,102079.44
2022-09-22T08:58:27.107Z,102086.34
2022-09-22T09:01:14.999Z,102084.34
2022-09-22T09:04:12.075Z,102086.28
2022-09-22T09:06:41.571Z,102087.28
2022-09-22T09:09:28.706Z,102078.47
2022-09-22T09:12:28.830Z,102090.63
2022-09-22T09:15:27.830Z,102085.50
2022-09-22T09:18:02.343Z,102081.00
2022-09-22T09:20:48.064Z,102078.81
2022-09-22T09:26:38.235Z,102085.25
2022-09-22T09:29:08.514Z,102077.88
2022-09-22T09:31:46.997Z,102078.72
2022-09-22T09:34:18.122Z,102071.91
2022-09-22T09:37:05.210Z,102075.97
2022-09-22T09:39:37.962Z,102081.94
2022-09-22T09:42:29.934Z,102074.78
2022-09-22T09:45:02.513Z,102070.22
2022-09-22T09:48:02.836Z,102065.59
2022-09-22T09:50:39.725Z,102064.69
2022-09-22T09:53:20.740Z,102066.94
2022-09-22T09:55:50.663Z,102064.16
2022-09-22T09:58:37.519Z,102063.03
2022-09-22T10:01:06.898Z,102062.28
2022-09-22T10:03:36.359Z,102058.09
2022-09-22T10:06:14.507Z,102054.84
2022-09-22T10:08:49.239Z,102063.50
2022-09-22T10:11:31.486Z,102055.84
2022-09-22T10:13:59.321Z,102052.03
2022-09-22T10:16:31.578Z,102046.91
2022-09-22T10:19:28.764Z,102038.56
2022-09-22T10:22:24.312Z,102048.03
2022-09-22T10:25:04.886Z,102042.22
2022-09-22T10:27:36.755Z,102041.13
2022-09-22T10:30:23.263Z,102031.59
2022-09-22T10:33:25.796Z,102028.94
2022-09-22T10:36:11.992Z,102028.22
2022-09-22T10:38:43.684Z,102027.81
2022-09-22T10:41:21.909Z,102018.59
2022-09-22T10:44:20.902Z,102031.66
2022-09-22T10:47:43.791Z,102022.16
2022-09-22T10:50:45.862Z,102011.81
2022-09-22T10:53:35.459Z,102009.63
2022-09-22T10:56:33.278Z,102018.88
2022-09-22T10:59:53.940Z,102011.63
2022-09-22T11:02:39.649Z,102011.19
2022-09-22T11:05:59.468Z,102018.06
2022-09-22T11:08:44.954Z,101998.13
2022-09-22T11:12:09.409Z,101997.56
2022-09-22T11:15:16.246Z,101999.31
2022-09-22T11:18:01.756Z,101996.09
2022-09-22T11:21:01.297Z,101994.63
2022-09-22T11:23:47.128Z,101980.78
2022-09-22T11:26:59.419Z,101987.66
2022-09-22T11:29:46.561Z,101976.16
2022-09-22T11:32:37.829Z,101987.53
2022-09-22T11:35:30.566Z,101975.31
2022-09-22T11:38:54.308Z,101968.56
2022-09-22T11:41:36.495Z,101965.34
2022-09-22T11:44:49.616Z,101956.63
2022-09-22T11:48:17.412Z,101960.19
2022-09-22T11:51:09.086Z,101954.41
2022-09-22T11:53:44.917Z,101958.22
2022-09-22T11:56:51.664Z,101944.53
2022-09-22T11:59:27.423Z,101948.75
2022-09-22T12:02:04.760Z,101946.66
2022-09-22T12:04:57.196Z,101935.75
2022-09-22T12:07:44.770Z,101937.00
2022-09-22T12:10:31.286Z,101936.69
2022-09-22T12:13:00.981Z,101946.47
2022-09-22T12:15:36.876Z,101928.63
2022-09-22T12:18:14.460Z,101934.03
2022-09-22T12:21:03.624Z,101930.44
2022-09-22T12:23:46.383Z,101928.84
2022-09-22T12:26:27.691Z,101913.50
2022-09-22T12:28:58.694Z,101909.81
2022-09-22T12:31:40.424Z,101914.00
2022-09-22T12:34:18.435Z,101922.41
2022-09-22T12:36:47.042Z,101916.75
2022-09-22T12:39:19.190Z,101917.75
2022-09-22T12:42:16.542Z,101913.41
2022-09-22T12:45:08.812Z,101915.44
2022-09-22T12:47:39.528Z,101911.06
2022-09-22T12:51:17.620Z,101895.25
2022-09-22T12:53:44.596Z,101895.34
2022-09-22T12:56:56.060Z,101893.16
2022-09-22T12:59:42.068Z,101893.66
2022-09-22T13:02:14.047Z,101891.19
2022-09-22T13:04:42.145Z,101900.31
2022-09-22T13:07:43.021Z,101894.69
2022-09-22T13:10:24.795Z,101883.97
2022-09-22T13:13:06.395Z,101896.38
2022-09-22T13:15:45.823Z,101882.50
2022-09-22T13:18:33.993Z,101876.31
2022-09-22T13:21:22.646Z,101881.22
2022-09-22T13:23:55.639Z,101876.50
2022-09-22T13:26:37.080Z,101874.03
2022-09-22T13:29:15.501Z,101876.41
2022-09-22T13:31:51.199Z,101865.06
2022-09-22T13:34:36.039Z,101861.25
2022-09-22T13:37:24.567Z,101872.66
2022-09-22T13:39:55.987Z,101873.09
2022-09-22T13:42:31.458Z,101855.31
2022-09-22T13:45:00.871Z,101856.38
2022-09-22T13:47:30.827Z,101855.50
2022-09-22T13:50:07.444Z,101849.06
2022-09-22T13:52:41.283Z,101853.31
2022-09-22T13:55:33.733Z,101859.16
2022-09-22T13:58:03.258Z,101850.31
2022-09-22T14:01:08.794Z,101842.97
2022-09-22T14:03:37.704Z,101848.06
2022-09-22T14:06:10.639Z,101837.84
2022-09-22T14:08:38.148Z,101837.97
2022-09-22T14:11:13.523Z,101837.13
2022-09-22T14:13:44.028Z,101840.28
2022-09-22T14:16:39.180Z,101833.78
2022-09-22T14:19:16.023Z,101835.00
2022-09-22T14:21:59.137Z,101841.06
2022-09-22T14:24:27.779Z,101836.91
2022-09-22T14:27:08.416Z,101833.72
2022-09-22T14:29:41.650Z,101836.44
2022-09-22T14:32:32.841Z,101841.63
2022-09-22T14:35:05.777Z,101836.81
2022-09-22T14:37:42.330Z,101837.75
2022-09-22T14:40:22.009Z,101842.13
2022-09-22T14:43:23.923Z,101831.78
2022-09-22T14:46:08.737Z,101834.63
2022-09-22T14:48:36.704Z,101831.25
2022-09-22T14:51:08.320Z,101828.56
2022-09-22T14:53:46.019Z,101831.34
2022-09-22T14:56:27.779Z,101816.72
2022-09-22T14:58:58.291Z,101822.44
2022-09-22T15:01:48.889Z,101823.94
2022-09-22T15:04:28.458Z,101811.78
2022-09-22T15:06:58.940Z,101814.34
2022-09-22T15:09:42.750Z,101800.31
2022-09-22T15:12:49.420Z,101803.72
2022-09-22T15:15:20.938Z,101799.97
2022-09-22T15:18:07.368Z,101810.88
2022-09-22T15:20:42.761Z,101803.91
2022-09-22T15:23:41.854Z,101803.69
2022-09-22T15:26:22.891Z,101795.50
2022-09-22T15:28:55.746Z,101793.78
2022-09-22T15:31:26.354Z,101797.75
2022-09-22T15:34:00.044Z,101793.13
2022-09-22T15:36:30.643Z,101784.78
2022-09-22T15:39:01.484Z,101795.53
2022-09-22T15:41:31.708Z,101791.63
2022-09-22T15:43:58.837Z,101788.94
2022-09-22T15:46:34.139Z,101779.47
2022-09-22T15:49:09.689Z,101788.59
2022-09-22T15:51:38.843Z,101775.03
2022-09-22T15:54:20.596Z,101780.53
2022-09-22T15:56:54.630Z,101774.31
2022-09-22T15:59:28.388Z,101782.06
2022-09-22T16:01:57.338Z,101774.47
2022-09-22T16:04:27.364Z,101779.31
2022-09-22T16:06:59.375Z,101775.69
2022-09-22T16:09:26.631Z,101769.59
2022-09-22T16:11:55.963Z,101762.22
2022-09-22T16:14:23.262Z,101762.09
2022-09-22T16:16:52.522Z,101758.72
2022-09-22T16:19:20.308Z,101765.13
2022-09-22T16:21:54.313Z,101770.00
2022-09-22T16:24:24.161Z,101761.16
2022-09-22T16:26:54.465Z,101761.09
2022-09-22T16:29:22.274Z,101757.44
2022-09-22T16:31:51.707Z,101759.00
2022-09-22T16:34:18.701Z,101759.84
2022-09-22T16:36:51.217Z,101760.38
2022-09-22T16:39:18.409Z,101748.88
2022-09-22T16:41:46.680Z,101757.50
2022-09-22T16:44:16.472Z,101754.63
2022-09-22T16:46:43.825Z,101748.34
2022-09-22T16:49:16.370Z,101745.34
2022-09-22T16:51:50.655Z,101749.13
2022-09-22T16:54:18.822Z,101749.72
2022-09-22T16:56:48.909Z,101748.84
2022-09-22T16:59:21.293Z,101741.44
2022-09-22T17:01:49.101Z,101746.84
2022-09-22T17:04:18.514Z,101748.53
2022-09-22T17:06:51.702Z,101746.31
2022-09-22T17:09:21.445Z,101739.28
2022-09-22T17:11:49.168Z,101744.88
2022-09-22T17:14:24.464Z,101739.50
2022-09-22T17:16:53.803Z,101745.19
2022-09-22T17:19:29.779Z,101742.28
2022-09-22T17:22:01.952Z,101742.75
2022-09-22T17:24:29.059Z,101733.13
2022-09-22T17:27:06.993Z,101738.75
2022-09-22T17:30:04.051Z,101723.25
2022-09-22T17:32:31.735Z,101730.09
2022-09-22T17:35:00.020Z,101735.16
2022-09-22T17:37:27.283Z,101727.88
2022-09-22T17:39:54.282Z,101722.78
2022-09-22T17:42:21.563Z,101722.88
2022-09-22T17:44:51.283Z,101726.75
2022-09-22T17:47:36.731Z,101726.25
2022-09-22T17:50:25.831Z,101725.22
2022-09-22T17:53:24.892Z,101725.31
2022-09-22T17:55:54.353Z,101725.66
2022-09-22T17:58:21.996Z,101720.06
2022-09-22T18:00:50.798Z,101721.00
2022-09-22T18:03:18.344Z,101712.41
2022-09-22T18:05:53.651Z,101715.53
2022-09-22T18:08:23.279Z,101719.00
2022-09-22T18:10:50.761Z,101715.44
2022-09-22T18:13:20.090Z,101725.03
2022-09-22T18:15:51.059Z,101721.53
2022-09-22T18:18:18.326Z,101729.06
2022-09-22T18:20:48.721Z,101728.84
2022-09-22T18:23:18.819Z,101732.56
2022-09-22T18:25:45.926Z,101733.59
2022-09-22T18:28:12.797Z,101727.50
2022-09-22T18:30:40.672Z,101728.84
2022-09-22T18:33:10.895Z,101729.19
2022-09-22T18:35:45.448Z,101733.31
2022-09-22T18:38:14.086Z,101729.91
2022-09-22T18:40:41.711Z,101728.78
2022-09-22T18:43:11.382Z,101737.16
2022-09-22T18:45:40.910Z,101735.94
2022-09-22T18:48:08.176Z,101741.56
2022-09-22T18:50:35.843Z,101733.72
2022-09-22T18:53:02.887Z,101728.22
2022-09-22T18:55:34.581Z,101735.41
2022-09-22T18:58:04.604Z,101737.81
2022-09-22T19:00:32.771Z,101738.00
2022-09-22T19:03:02.639Z,101736.84
2022-09-22T19:05:29.760Z,101737.66
2022-09-22T19:07:59.347Z,101734.72
2022-09-22T19:10:26.966Z,101728.56
2022-09-22T19:12:54.586Z,101733.00
2022-09-22T19:15:27.202Z,101736.09
2022-09-22T19:17:55.841Z,101731.88
2022-09-22T19:20:24.484Z,101734.75
2022-09-22T19:22:55.149Z,101734.75
2022-09-22T19:25:24.662Z,101734.25
2022-09-22T19:27:55.984Z,101735.63
2022-09-22T19:30:26.596Z,101726.41
2022-09-22T19:32:56.960Z,101730.34
2022-09-22T19:35:23.926Z,101733.31
2022-09-22T19:37:52.010Z,101731.44
2022-09-22T19:40:25.098Z,101732.44
2022-09-22T19:42:53.527Z,101729.69
2022-09-22T19:45:25.462Z,101731.09
2022-09-22T19:48:01.797Z,101727.16
2022-09-22T19:50:30.836Z,101741.66
2022-09-22T19:52:57.755Z,101740.66
2022-09-22T19:55:27.111Z,101728.69
2022-09-22T19:57:54.245Z,101741.31
2022-09-22T20:00:26.445Z,101734.84
2022-09-22T20:02:58.581Z,101731.78
2022-09-22T20:05:32.650Z,101730.06
2022-09-22T20:08:04.023Z,101731.78
2022-09-22T20:10:33.892Z,101727.13
2022-09-22T20:13:01.013Z,101729.34
2022-09-22T20:15:30.635Z,101731.53
2022-09-22T20:17:59.762Z,101724.56
2022-09-22T20:20:29.768Z,101721.47
2022-09-22T20:23:04.172Z,101732.22
2022-09-22T20:25:32.911Z,101729.63
2022-09-22T20:28:00.578Z,101732.69
2022-09-22T20:30:27.825Z,101724.16
2022-09-22T20:32:55.298Z,101729.25
2022-09-22T20:35:22.521Z,101730.03
2022-09-22T20:37:49.895Z,101723.06
2022-09-22T20:40:23.709Z,101724.09
2022-09-22T20:42:54.328Z,101724.78
2022-09-22T20:45:25.374Z,101728.69
2022-09-22T20:47:52.778Z,101728.16
2022-09-22T20:50:22.503Z,101722.28
2022-09-22T20:52:51.554Z,101723.66
2022-09-22T20:55:22.619Z,101713.09
2022-09-22T20:57:52.709Z,101710.66
2022-09-22T21:00:27.125Z,101714.75
2022-09-22T21:02:54.641Z,101705.88
2022-09-22T21:05:24.508Z,101703.50
2022-09-22T21:08:11.505Z,101708.25
2022-09-22T21:10:38.774Z,101709.16
2022-09-22T21:13:06.029Z,101715.84
2022-09-22T21:15:35.574Z,101706.44
2022-09-22T21:18:05.478Z,101716.25
2022-09-22T21:20:32.743Z,101718.88
2022-09-22T21:23:00.075Z,101708.41
2022-09-22T21:25:27.601Z,101713.34
2022-09-22T21:27:55.006Z,101708.00
2022-09-22T21:30:24.973Z,101708.41
2022-09-22T21:32:52.549Z,101710.97
2022-09-22T21:35:25.081Z,101703.25
2022-09-22T21:37:56.094Z,101708.47
2022-09-22T21:40:26.184Z,101710.03
2022-09-22T21:42:55.797Z,101707.84
2022-09-22T21:45:25.818Z,101706.38
2022-09-22T21:47:53.154Z,101699.97
2022-09-22T21:50:25.624Z,101705.09
2022-09-22T21:52:55.784Z,101702.00
2022-09-22T21:55:22.754Z,101703.25
2022-09-22T21:57:53.223Z,101696.16
2022-09-22T22:00:36.892Z,101699.97
2022-09-22T22:03:26.258Z,101698.16
2022-09-22T22:06:11.027Z,101709.34
2022-09-22T22:08:54.284Z,101695.03
2022-09-22T22:11:31.918Z,101695.03
2022-09-22T22:14:02.367Z,101702.44
2022-09-22T22:16:40.277Z,101697.31
2022-09-22T22:19:12.518Z,101690.63
2022-09-22T22:21:41.157Z,101686.19
2022-09-22T22:24:34.456Z,101679.47
2022-09-22T22:27:07.763Z,101683.00
2022-09-22T22:29:39.114Z,101686.81
2022-09-22T22:32:09.559Z,101678.59
2022-09-22T22:34:37.479Z,101679.34
2022-09-22T22:37:10.892Z,101673.69
2022-09-22T22:39:38.221Z,101671.97
2022-09-22T22:42:08.043Z,101674.41
2022-09-22T22:44:35.386Z,101671.59
2022-09-22T22:47:02.570Z,101668.34
2022-09-22T22:49:33.978Z,101663.81
2022-09-22T22:52:03.654Z,101655.84
2022-09-22T22:54:30.657Z,101665.53
2022-09-22T22:57:00.233Z,101664.69
2022-09-22T22:59:29.568Z,101666.59
2022-09-22T23:01:59.520Z,101661.63
2022-09-22T23:04:29.037Z,101666.22
2022-09-22T23:06:56.202Z,101666.75
2022-09-22T23:09:23.246Z,101653.41
2022-09-22T23:11:50.275Z,101659.59
2022-09-22T23:14:17.325Z,101655.41
2022-09-22T23:16:46.909Z,101656.88
2022-09-22T23:19:21.257Z,101649.50
2022-09-22T23:21:51.583Z,101652.53
2022-09-22T23:24:19.450Z,101646.03
2022-09-22T23:26:51.590Z,101649.59
2022-09-22T23:29:18.522Z,101642.25
2022-09-22T23:31:45.924Z,101641.25
2022-09-22T23:34:12.780Z,101633.06
2022-09-22T23:36:39.833Z,101632.50
2022-09-22T23:39:06.870Z,101634.91
2022-09-22T23:41:39.503Z,101629.72
2022-09-22T23:44:06.702Z,101624.81
2022-09-22T23:46:37.575Z,101624.53
2022-09-22T23:49:07.831Z,101624.06
2022-09-22T23:51:37.342Z,101619.63
2022-09-22T23:54:07.002Z,101621.56
2022-09-22T23:56:34.133Z,101617.53
2022-09-22T23:59:01.064Z,101618.31
